Tonghe, China
Current Conditions -  °F | °C
As of 10:00 AM on Monday 22 Dec 2014 (Local Time) from ZYHB Reporting Station
Haze Haze  
Wind Chill: -15°   Ceiling: Unl
Heat Index: -2°   Visibility: 2.1mi
Dew Point: -8°   Wind: 7mph
Humidity: 78%   Direction: 270°W
Pressure: 30.06"   Gusts: NA
Location:  45.97°N, 128.73°E
Report Text: ZYHB 220200Z 27003MPS 3500 BR NSC M19/M22 Q1018 NOSIG
Loading
Personal Weather Stations






























Interactive Weather Map New forecast layout! Learn more

10-Day Weather Forecast

Advertisements
Track Severe Weather on mobile